TAF LFBG
METAR LFBG
LFBG 080400Z AUTO 19008KT 9999 FEW029/// SCT044/// BKN220/// ///TCU 06/04 Q1002=
LFBG 080330Z AUTO 20007KT 9999 FEW026/// SCT046/// BKN060/// ///TCU 06/04 Q1002=
LFBG 080300Z AUTO 20008KT 9999 FEW044 BKN100 BKN130 07/04 Q1002=
LFBG 080230Z AUTO 19007KT CAVOK 06/04 Q1002=
LFBG 080200Z AUTO 22005KT CAVOK 07/04 Q1002=
WC LFBG
WS LFBG
WV LFBG